Knowles, Oklahoma
Current Conditions -  °F | °C
As of 6:35 AM on Monday 22 Dec 2014 (Local Time) from KPYX Reporting Station
Clear Clear  
Wind Chill: 33°   Ceiling: Unl
Heat Index: 42°   Visibility: 10mi
Dew Point: 36°   Wind: 20mph
Humidity: 80%   Direction: 330°NNW
Pressure: 29.63"   Gusts: NA
Location:  36.87°N, 100.19°W
Report Text: KPYX 221235Z AUTO 33017KT 10SM CLR 06/02 A2963 RMK AO2 T00550023
Loading
Personal Weather Stations






























Interactive Weather Map New forecast layout! Learn more

10-Day Weather Forecast

Advertisements
Track Severe Weather on mobile